createdAt,value
2019-04-06T00:05:01.073Z,78.47
2019-04-06T00:10:08.139Z,78.78
2019-04-06T00:15:14.948Z,79.65
2019-04-06T00:20:21.397Z,94.00
2019-04-06T00:25:28.018Z,75.00
2019-04-06T00:30:43.070Z,76.40
2019-04-06T00:35:49.560Z,80.05
2019-04-06T00:40:56.314Z,69.15
2019-04-06T00:46:03.158Z,54.93
2019-04-06T00:51:09.778Z,66.30
2019-04-06T00:56:16.373Z,76.02
2019-04-06T01:01:22.901Z,76.12
2019-04-06T01:06:29.509Z,78.78
2019-04-06T01:11:36.118Z,82.27
2019-04-06T01:16:42.673Z,74.32
2019-04-06T01:21:49.357Z,56.77
2019-04-06T01:26:56.000Z,66.00
2019-04-06T01:32:02.495Z,75.17
2019-04-06T01:37:09.051Z,81.97
2019-04-06T01:42:15.515Z,75.35
2019-04-06T01:47:22.199Z,61.63
2019-04-06T01:52:28.746Z,67.32
2019-04-06T01:57:35.436Z,59.00
2019-04-06T02:02:44.289Z,56.68
2019-04-06T02:07:51.943Z,69.85
2019-04-06T02:12:58.583Z,67.15
2019-04-06T02:18:06.061Z,94.22
2019-04-06T02:23:12.872Z,75.75
2019-04-06T02:28:19.472Z,62.00
2019-04-06T02:33:37.172Z,50.48
2019-04-06T02:39:00.926Z,67.53
2019-04-06T02:44:09.152Z,81.90
2019-04-06T02:49:15.666Z,94.37
2019-04-06T02:54:22.289Z,69.03
2019-04-06T02:59:28.950Z,56.00
2019-04-06T03:04:35.530Z,43.30
2019-04-06T03:09:42.151Z,49.85
2019-04-06T03:14:48.776Z,45.65
2019-04-06T03:19:55.384Z,37.63
2019-04-06T03:25:02.035Z,40.10
2019-04-06T03:30:09.870Z,36.90
2019-04-06T03:35:16.518Z,40.70
2019-04-06T03:40:23.063Z,40.85
2019-04-06T03:45:29.938Z,69.67
2019-04-06T03:50:36.486Z,93.07
2019-04-06T03:55:43.112Z,48.02
2019-04-06T04:00:49.750Z,49.88
2019-04-06T04:05:56.301Z,48.45
2019-04-06T04:11:02.687Z,46.95
2019-04-06T04:16:09.589Z,43.13
2019-04-06T04:21:16.563Z,46.70
2019-04-06T04:26:23.392Z,47.93
2019-04-06T04:31:30.035Z,47.40
2019-04-06T04:36:36.531Z,44.55
2019-04-06T04:41:43.086Z,47.70
2019-04-06T04:46:49.714Z,41.05
2019-04-06T04:51:56.425Z,39.23
2019-04-06T04:57:03.056Z,33.63
2019-04-06T05:02:09.700Z,33.33
2019-04-06T05:07:16.408Z,38.25
2019-04-06T05:12:22.906Z,36.23
2019-04-06T05:17:30.030Z,44.40
2019-04-06T05:22:36.667Z,47.78
2019-04-06T05:27:52.027Z,39.55
2019-04-06T05:32:51.828Z,37.28
2019-04-06T05:37:58.321Z,31.85
2019-04-06T05:43:04.948Z,45.05
2019-04-06T05:48:11.590Z,28.50
2019-04-06T05:53:18.171Z,27.27
2019-04-06T05:58:24.670Z,20.57
2019-04-06T06:03:31.085Z,27.40
2019-04-06T06:08:37.689Z,30.50
2019-04-06T06:13:44.140Z,25.77
2019-04-06T06:18:50.700Z,32.45
2019-04-06T06:23:57.526Z,32.88
2019-04-06T06:29:04.235Z,26.97
2019-04-06T06:34:11.017Z,24.57
2019-04-06T06:39:17.635Z,25.72
2019-04-06T06:44:24.006Z,25.80
2019-04-06T06:49:30.422Z,24.27
2019-04-06T06:54:36.880Z,27.22
2019-04-06T06:59:43.290Z,24.82
2019-04-06T07:04:52.550Z,28.10
2019-04-06T07:10:05.177Z,23.95
2019-04-06T07:15:08.397Z,27.27
2019-04-06T07:20:15.515Z,33.35
2019-04-06T07:25:22.050Z,29.23
2019-04-06T07:30:30.295Z,30.80
2019-04-06T07:35:37.405Z,31.07
2019-04-06T07:40:44.217Z,32.55
2019-04-06T07:45:50.855Z,31.07
2019-04-06T07:50:57.461Z,32.63
2019-04-06T07:56:04.006Z,27.70
2019-04-06T08:01:10.553Z,30.05
2019-04-06T08:06:17.241Z,33.35
2019-04-06T08:11:23.778Z,29.37
2019-04-06T08:16:30.398Z,27.37
2019-04-06T08:21:38.025Z,28.45
2019-04-06T08:26:46.191Z,29.95
2019-04-06T08:31:52.926Z,29.77
2019-04-06T08:36:59.692Z,29.27
2019-04-06T08:42:06.567Z,25.40
2019-04-06T08:47:13.141Z,29.12
2019-04-06T08:52:19.613Z,24.87
2019-04-06T08:57:26.166Z,24.70
2019-04-06T09:02:32.967Z,27.60
2019-04-06T09:07:40.907Z,29.30
2019-04-06T09:12:48.091Z,26.02
2019-04-06T09:17:54.752Z,25.52
2019-04-06T09:23:01.306Z,29.35
2019-04-06T09:28:08.183Z,23.02
2019-04-06T09:33:14.964Z,28.25
2019-04-06T09:38:21.757Z,22.52
2019-04-06T09:43:28.627Z,30.43
2019-04-06T09:48:54.105Z,24.98
2019-04-06T09:54:31.934Z,26.68
2019-04-06T09:59:48.026Z,24.35
2019-04-06T10:05:09.900Z,23.98
2019-04-06T10:10:53.749Z,26.00
2019-04-06T10:16:25.287Z,23.35
2019-04-06T10:21:42.886Z,22.80
2019-04-06T10:27:13.055Z,18.40
2019-04-06T10:32:32.204Z,21.27
2019-04-06T10:37:48.932Z,23.35
2019-04-06T10:43:23.880Z,20.25
2019-04-06T10:48:37.247Z,24.82
2019-04-06T10:59:31.968Z,23.38
2019-04-06T11:04:45.752Z,21.65
2019-04-06T11:10:10.217Z,19.75
2019-04-06T11:15:41.625Z,19.27
2019-04-06T11:20:57.165Z,22.15
2019-04-06T11:26:21.474Z,23.92
2019-04-06T11:31:49.842Z,25.52
2019-04-06T11:37:14.395Z,20.45
2019-04-06T11:42:32.195Z,17.80
2019-04-06T11:48:04.286Z,21.00
2019-04-06T11:53:49.971Z,22.25
2019-04-06T11:59:09.824Z,22.10
2019-04-06T12:04:33.838Z,24.43
2019-04-06T12:10:14.820Z,25.60
2019-04-06T12:15:52.492Z,26.00
2019-04-06T12:21:05.498Z,24.67
2019-04-06T12:26:34.096Z,26.15
2019-04-06T12:32:08.516Z,26.82
2019-04-06T12:37:33.996Z,27.45
2019-04-06T12:42:46.255Z,27.90
2019-04-06T12:48:14.361Z,26.70
2019-04-06T12:53:36.856Z,25.70
2019-04-06T12:58:50.829Z,28.43
2019-04-06T13:04:24.637Z,30.50
2019-04-06T13:09:42.074Z,29.42
2019-04-06T13:15:07.558Z,29.87
2019-04-06T13:20:27.200Z,24.18
2019-04-06T13:25:44.430Z,30.37
2019-04-06T13:31:03.580Z,26.68
2019-04-06T13:36:28.394Z,25.80
2019-04-06T13:41:53.033Z,23.60
2019-04-06T13:47:22.728Z,23.40
2019-04-06T13:52:39.273Z,24.43
2019-04-06T13:57:52.583Z,22.07
2019-04-06T14:08:41.272Z,25.00
2019-04-06T14:14:24.934Z,21.45
2019-04-06T14:25:08.671Z,23.50
2019-04-06T14:30:21.790Z,20.68
2019-04-06T14:35:39.165Z,23.80
2019-04-06T14:41:16.922Z,17.02
2019-04-06T14:46:52.207Z,17.57
2019-04-06T14:52:14.134Z,18.48
2019-04-06T14:57:47.251Z,22.90
2019-04-06T15:03:11.556Z,17.60
2019-04-06T15:08:36.585Z,22.98
2019-04-06T15:14:14.275Z,22.07
2019-04-06T15:19:40.693Z,24.80
2019-04-06T15:25:05.954Z,17.00
2019-04-06T15:30:39.246Z,19.30
2019-04-06T15:36:01.894Z,23.42
2019-04-06T15:41:54.044Z,23.77
2019-04-06T15:47:04.674Z,19.70
2019-04-06T15:52:36.398Z,33.10
2019-04-06T15:58:05.080Z,47.10
2019-04-06T16:03:27.491Z,32.23
2019-04-06T16:08:59.263Z,20.55
2019-04-06T16:14:40.176Z,19.02
2019-04-06T16:20:04.610Z,18.37
2019-04-06T16:25:17.113Z,22.02
2019-04-06T16:30:31.508Z,28.83
2019-04-06T16:35:59.856Z,22.22
2019-04-06T16:41:24.124Z,19.10
2019-04-06T16:46:53.388Z,21.27
2019-04-06T16:52:27.184Z,17.12
2019-04-06T16:57:46.148Z,17.70
2019-04-06T17:03:07.169Z,22.27
2019-04-06T17:08:21.822Z,29.40
2019-04-06T17:14:02.589Z,41.88
2019-04-06T17:19:31.237Z,31.27
2019-04-06T17:24:45.768Z,28.25
2019-04-06T17:30:10.248Z,25.72
2019-04-06T17:35:25.324Z,25.17
2019-04-06T17:40:44.597Z,27.73
2019-04-06T17:46:10.253Z,32.70
2019-04-06T17:52:00.883Z,31.07
2019-04-06T17:57:18.725Z,22.52
2019-04-06T18:02:48.734Z,27.15
2019-04-06T18:08:08.413Z,25.23
2019-04-06T18:13:36.759Z,33.45
2019-04-06T18:18:43.309Z,33.48
2019-04-06T18:23:50.508Z,29.77
2019-04-06T18:28:57.455Z,26.65
2019-04-06T18:34:04.248Z,24.30
2019-04-06T18:39:11.581Z,23.85
2019-04-06T18:44:18.346Z,25.72
2019-04-06T18:49:25.024Z,20.37
2019-04-06T18:54:31.677Z,18.67
2019-04-06T18:59:38.258Z,20.75
2019-04-06T19:04:44.720Z,19.57
2019-04-06T19:09:51.359Z,21.45
2019-04-06T19:14:58.012Z,20.77
2019-04-06T19:20:05.750Z,21.65
2019-04-06T19:25:12.683Z,20.57
2019-04-06T19:30:21.091Z,20.48
2019-04-06T19:35:28.108Z,38.17
2019-04-06T19:40:36.419Z,29.25
2019-04-06T19:45:46.408Z,33.60
2019-04-06T19:50:54.327Z,27.82
2019-04-06T19:56:01.352Z,34.67
2019-04-06T20:01:08.195Z,56.65
2019-04-06T20:06:15.553Z,50.38
2019-04-06T20:11:22.538Z,39.15
2019-04-06T20:16:29.229Z,38.55
2019-04-06T20:21:36.190Z,34.73
2019-04-06T20:26:44.119Z,27.67
2019-04-06T20:31:50.799Z,27.60
2019-04-06T20:36:57.971Z,22.60
2019-04-06T20:42:05.260Z,20.43
2019-04-06T20:47:11.886Z,21.27
2019-04-06T20:52:18.434Z,21.17
2019-04-06T20:57:25.673Z,21.77
2019-04-06T21:02:33.969Z,19.02
2019-04-06T21:07:40.737Z,20.05
2019-04-06T21:12:47.617Z,17.02
2019-04-06T21:17:55.276Z,17.95
2019-04-06T21:23:01.918Z,14.47
2019-04-06T21:28:08.876Z,15.93
2019-04-06T21:33:15.484Z,17.77
2019-04-06T21:38:22.780Z,14.93
2019-04-06T21:43:29.851Z,16.52
2019-04-06T21:48:36.738Z,17.10
2019-04-06T21:53:43.554Z,15.55
2019-04-06T21:58:50.443Z,16.17
2019-04-06T22:03:57.645Z,16.97
2019-04-06T22:09:08.170Z,14.35
2019-04-06T22:14:14.952Z,14.63
2019-04-06T22:19:21.489Z,13.43
2019-04-06T22:24:28.140Z,14.55
2019-04-06T22:29:35.270Z,15.38
2019-04-06T22:34:42.532Z,14.65
2019-04-06T22:39:49.241Z,15.63
2019-04-06T22:44:56.031Z,13.90
2019-04-06T22:50:02.800Z,15.15
2019-04-06T22:55:10.166Z,16.67
2019-04-06T23:00:36.640Z,16.73
2019-04-06T23:05:47.026Z,19.20
2019-04-06T23:10:53.576Z,15.90
2019-04-06T23:16:00.129Z,18.70
2019-04-06T23:21:06.760Z,20.20
2019-04-06T23:26:13.467Z,18.70
2019-04-06T23:31:21.196Z,20.85
2019-04-06T23:36:27.856Z,23.42
2019-04-06T23:41:34.699Z,22.70
2019-04-06T23:46:41.844Z,21.23
2019-04-06T23:51:48.617Z,19.77
2019-04-06T23:56:55.240Z,20.17
